sensor_id;sensor_type;location;lat;lon;timestamp;P1;durP1;ratioP1;P2;durP2;ratioP2
14817;SDS011;7500;57.698;11.986;2023-05-07T00:00:30;3.40;;;1.50;;
14817;SDS011;7500;57.698;11.986;2023-05-07T00:02:58;2.93;;;1.57;;
14817;SDS011;7500;57.698;11.986;2023-05-07T00:05:26;5.07;;;1.43;;
14817;SDS011;7500;57.698;11.986;2023-05-07T00:07:53;2.10;;;1.33;;
14817;SDS011;7500;57.698;11.986;2023-05-07T00:10:19;2.87;;;1.37;;
14817;SDS011;7500;57.698;11.986;2023-05-07T00:12:46;5.97;;;1.40;;
14817;SDS011;7500;57.698;11.986;2023-05-07T00:15:12;5.60;;;1.20;;
14817;SDS011;7500;57.698;11.986;2023-05-07T00:17:41;3.43;;;1.30;;
14817;SDS011;7500;57.698;11.986;2023-05-07T00:20:08;3.23;;;1.27;;
14817;SDS011;7500;57.698;11.986;2023-05-07T00:22:34;3.03;;;1.13;;
14817;SDS011;7500;57.698;11.986;2023-05-07T00:25:01;1.47;;;1.23;;
14817;SDS011;7500;57.698;11.986;2023-05-07T00:27:27;4.47;;;1.20;;
14817;SDS011;7500;57.698;11.986;2023-05-07T00:29:54;1.80;;;1.13;;
14817;SDS011;7500;57.698;11.986;2023-05-07T00:32:21;2.03;;;1.27;;
14817;SDS011;7500;57.698;11.986;2023-05-07T00:34:49;1.77;;;1.30;;
14817;SDS011;7500;57.698;11.986;2023-05-07T00:37:16;5.03;;;1.30;;
14817;SDS011;7500;57.698;11.986;2023-05-07T00:39:42;1.93;;;1.07;;
14817;SDS011;7500;57.698;11.986;2023-05-07T00:42:09;2.13;;;1.20;;
14817;SDS011;7500;57.698;11.986;2023-05-07T00:44:35;2.73;;;1.03;;
14817;SDS011;7500;57.698;11.986;2023-05-07T00:47:03;2.40;;;1.00;;
14817;SDS011;7500;57.698;11.986;2023-05-07T00:49:32;2.60;;;1.10;;
14817;SDS011;7500;57.698;11.986;2023-05-07T00:52:03;1.40;;;0.97;;
14817;SDS011;7500;57.698;11.986;2023-05-07T00:54:30;1.23;;;0.90;;
14817;SDS011;7500;57.698;11.986;2023-05-07T00:56:56;1.87;;;1.23;;
14817;SDS011;7500;57.698;11.986;2023-05-07T00:59:23;2.00;;;1.03;;
14817;SDS011;7500;57.698;11.986;2023-05-07T01:01:50;3.67;;;1.10;;
14817;SDS011;7500;57.698;11.986;2023-05-07T01:04:17;1.63;;;1.10;;
14817;SDS011;7500;57.698;11.986;2023-05-07T01:06:43;1.10;;;1.00;;
14817;SDS011;7500;57.698;11.986;2023-05-07T01:09:12;1.93;;;1.17;;
14817;SDS011;7500;57.698;11.986;2023-05-07T01:11:38;1.23;;;1.10;;
14817;SDS011;7500;57.698;11.986;2023-05-07T01:14:06;2.17;;;1.20;;
14817;SDS011;7500;57.698;11.986;2023-05-07T01:16:33;3.43;;;1.17;;
14817;SDS011;7500;57.698;11.986;2023-05-07T01:18:59;1.20;;;1.07;;
14817;SDS011;7500;57.698;11.986;2023-05-07T01:21:26;1.17;;;1.00;;
14817;SDS011;7500;57.698;11.986;2023-05-07T01:23:54;1.33;;;1.00;;
14817;SDS011;7500;57.698;11.986;2023-05-07T01:26:22;0.80;;;0.80;;
14817;SDS011;7500;57.698;11.986;2023-05-07T01:28:48;0.80;;;0.70;;
14817;SDS011;7500;57.698;11.986;2023-05-07T01:31:15;1.30;;;1.00;;
14817;SDS011;7500;57.698;11.986;2023-05-07T01:33:43;2.07;;;0.97;;
14817;SDS011;7500;57.698;11.986;2023-05-07T01:36:09;1.50;;;0.90;;
14817;SDS011;7500;57.698;11.986;2023-05-07T01:38:38;2.93;;;1.10;;
14817;SDS011;7500;57.698;11.986;2023-05-07T01:41:07;1.40;;;0.90;;
14817;SDS011;7500;57.698;11.986;2023-05-07T01:43:33;1.57;;;0.90;;
14817;SDS011;7500;57.698;11.986;2023-05-07T01:46:00;3.53;;;1.10;;
14817;SDS011;7500;57.698;11.986;2023-05-07T01:48:27;2.03;;;1.00;;
14817;SDS011;7500;57.698;11.986;2023-05-07T01:50:54;1.53;;;0.70;;
14817;SDS011;7500;57.698;11.986;2023-05-07T01:53:21;1.77;;;0.90;;
14817;SDS011;7500;57.698;11.986;2023-05-07T01:55:48;2.23;;;1.00;;
14817;SDS011;7500;57.698;11.986;2023-05-07T01:58:16;2.97;;;0.97;;
14817;SDS011;7500;57.698;11.986;2023-05-07T02:00:42;2.13;;;1.07;;
14817;SDS011;7500;57.698;11.986;2023-05-07T02:03:09;1.97;;;0.97;;
14817;SDS011;7500;57.698;11.986;2023-05-07T02:05:36;2.13;;;0.90;;
14817;SDS011;7500;57.698;11.986;2023-05-07T02:08:03;1.50;;;0.97;;
14817;SDS011;7500;57.698;11.986;2023-05-07T02:10:30;4.83;;;1.07;;
14817;SDS011;7500;57.698;11.986;2023-05-07T02:12:56;1.07;;;0.97;;
14817;SDS011;7500;57.698;11.986;2023-05-07T02:15:24;1.17;;;0.90;;
14817;SDS011;7500;57.698;11.986;2023-05-07T02:17:58;3.17;;;1.03;;
14817;SDS011;7500;57.698;11.986;2023-05-07T02:20:25;1.00;;;0.83;;
14817;SDS011;7500;57.698;11.986;2023-05-07T02:22:51;0.90;;;0.90;;
14817;SDS011;7500;57.698;11.986;2023-05-07T02:25:18;1.73;;;0.80;;
14817;SDS011;7500;57.698;11.986;2023-05-07T02:27:45;1.77;;;0.90;;
14817;SDS011;7500;57.698;11.986;2023-05-07T02:30:11;0.80;;;0.80;;
14817;SDS011;7500;57.698;11.986;2023-05-07T02:32:40;2.33;;;1.13;;
14817;SDS011;7500;57.698;11.986;2023-05-07T02:35:06;1.50;;;0.90;;
14817;SDS011;7500;57.698;11.986;2023-05-07T02:37:36;1.77;;;0.90;;
14817;SDS011;7500;57.698;11.986;2023-05-07T02:40:03;1.90;;;0.90;;
14817;SDS011;7500;57.698;11.986;2023-05-07T02:42:29;2.37;;;0.90;;
14817;SDS011;7500;57.698;11.986;2023-05-07T02:44:56;3.30;;;1.47;;
14817;SDS011;7500;57.698;11.986;2023-05-07T02:47:23;1.17;;;0.90;;
14817;SDS011;7500;57.698;11.986;2023-05-07T02:49:53;2.87;;;1.00;;
14817;SDS011;7500;57.698;11.986;2023-05-07T02:52:20;1.33;;;1.00;;
14817;SDS011;7500;57.698;11.986;2023-05-07T02:54:46;2.63;;;1.10;;
14817;SDS011;7500;57.698;11.986;2023-05-07T02:57:13;1.20;;;1.10;;
14817;SDS011;7500;57.698;11.986;2023-05-07T02:59:40;3.03;;;0.80;;
14817;SDS011;7500;57.698;11.986;2023-05-07T03:02:06;3.47;;;0.90;;
14817;SDS011;7500;57.698;11.986;2023-05-07T03:04:33;0.80;;;0.80;;
14817;SDS011;7500;57.698;11.986;2023-05-07T03:07:01;1.40;;;0.90;;
14817;SDS011;7500;57.698;11.986;2023-05-07T03:09:27;1.57;;;1.00;;
14817;SDS011;7500;57.698;11.986;2023-05-07T03:11:54;3.43;;;1.20;;
14817;SDS011;7500;57.698;11.986;2023-05-07T03:14:20;0.77;;;0.77;;
14817;SDS011;7500;57.698;11.986;2023-05-07T03:16:47;1.80;;;1.10;;
14817;SDS011;7500;57.698;11.986;2023-05-07T03:19:14;0.83;;;0.80;;
14817;SDS011;7500;57.698;11.986;2023-05-07T03:21:40;1.53;;;0.90;;
14817;SDS011;7500;57.698;11.986;2023-05-07T03:24:08;2.80;;;1.10;;
14817;SDS011;7500;57.698;11.986;2023-05-07T03:26:35;2.90;;;0.80;;
14817;SDS011;7500;57.698;11.986;2023-05-07T03:29:01;1.10;;;1.00;;
14817;SDS011;7500;57.698;11.986;2023-05-07T03:31:28;1.33;;;1.10;;
14817;SDS011;7500;57.698;11.986;2023-05-07T03:33:56;2.23;;;1.00;;
14817;SDS011;7500;57.698;11.986;2023-05-07T03:36:23;4.30;;;1.00;;
14817;SDS011;7500;57.698;11.986;2023-05-07T03:38:51;1.33;;;1.00;;
14817;SDS011;7500;57.698;11.986;2023-05-07T03:41:19;0.93;;;0.90;;
14817;SDS011;7500;57.698;11.986;2023-05-07T03:43:46;1.50;;;1.03;;
14817;SDS011;7500;57.698;11.986;2023-05-07T03:46:13;1.17;;;1.07;;
14817;SDS011;7500;57.698;11.986;2023-05-07T03:48:39;1.33;;;1.10;;
14817;SDS011;7500;57.698;11.986;2023-05-07T03:51:06;1.20;;;1.10;;
14817;SDS011;7500;57.698;11.986;2023-05-07T03:53:33;1.57;;;1.03;;
14817;SDS011;7500;57.698;11.986;2023-05-07T03:55:59;1.63;;;1.20;;
14817;SDS011;7500;57.698;11.986;2023-05-07T03:58:27;1.37;;;0.70;;
14817;SDS011;7500;57.698;11.986;2023-05-07T04:00:54;3.90;;;1.20;;
14817;SDS011;7500;57.698;11.986;2023-05-07T04:03:21;2.30;;;1.00;;
14817;SDS011;7500;57.698;11.986;2023-05-07T04:05:47;1.23;;;0.80;;
14817;SDS011;7500;57.698;11.986;2023-05-07T04:08:14;1.50;;;1.10;;
14817;SDS011;7500;57.698;11.986;2023-05-07T04:10:40;1.87;;;1.00;;
14817;SDS011;7500;57.698;11.986;2023-05-07T04:13:07;3.17;;;1.20;;
14817;SDS011;7500;57.698;11.986;2023-05-07T04:15:36;1.70;;;1.10;;
14817;SDS011;7500;57.698;11.986;2023-05-07T04:18:03;1.17;;;0.90;;
14817;SDS011;7500;57.698;11.986;2023-05-07T04:20:29;2.17;;;1.10;;
14817;SDS011;7500;57.698;11.986;2023-05-07T04:22:58;1.83;;;0.93;;
14817;SDS011;7500;57.698;11.986;2023-05-07T04:25:24;2.47;;;1.00;;
14817;SDS011;7500;57.698;11.986;2023-05-07T04:27:51;1.87;;;1.00;;
14817;SDS011;7500;57.698;11.986;2023-05-07T04:30:18;1.93;;;0.90;;
14817;SDS011;7500;57.698;11.986;2023-05-07T04:32:46;1.00;;;1.00;;
14817;SDS011;7500;57.698;11.986;2023-05-07T04:35:13;3.80;;;1.27;;
14817;SDS011;7500;57.698;11.986;2023-05-07T04:37:39;3.27;;;1.20;;
14817;SDS011;7500;57.698;11.986;2023-05-07T04:40:07;1.60;;;1.00;;
14817;SDS011;7500;57.698;11.986;2023-05-07T04:42:33;1.00;;;0.83;;
14817;SDS011;7500;57.698;11.986;2023-05-07T04:45:00;2.10;;;1.33;;
14817;SDS011;7500;57.698;11.986;2023-05-07T04:47:27;4.10;;;1.30;;
14817;SDS011;7500;57.698;11.986;2023-05-07T04:49:55;6.77;;;1.30;;
14817;SDS011;7500;57.698;11.986;2023-05-07T04:52:22;4.63;;;1.20;;
14817;SDS011;7500;57.698;11.986;2023-05-07T04:54:48;3.10;;;1.60;;
14817;SDS011;7500;57.698;11.986;2023-05-07T04:57:15;1.63;;;0.90;;
14817;SDS011;7500;57.698;11.986;2023-05-07T04:59:42;1.30;;;1.20;;
14817;SDS011;7500;57.698;11.986;2023-05-07T05:02:09;1.23;;;0.77;;
14817;SDS011;7500;57.698;11.986;2023-05-07T05:04:36;2.07;;;1.10;;
14817;SDS011;7500;57.698;11.986;2023-05-07T05:07:04;1.23;;;0.97;;
14817;SDS011;7500;57.698;11.986;2023-05-07T05:09:31;3.03;;;1.40;;
14817;SDS011;7500;57.698;11.986;2023-05-07T05:11:57;1.00;;;0.77;;
14817;SDS011;7500;57.698;11.986;2023-05-07T05:14:25;1.20;;;1.10;;
14817;SDS011;7500;57.698;11.986;2023-05-07T05:16:51;0.83;;;0.70;;
14817;SDS011;7500;57.698;11.986;2023-05-07T05:19:18;1.67;;;0.90;;
14817;SDS011;7500;57.698;11.986;2023-05-07T05:21:45;1.20;;;0.93;;
14817;SDS011;7500;57.698;11.986;2023-05-07T05:24:13;2.57;;;1.00;;
14817;SDS011;7500;57.698;11.986;2023-05-07T05:26:40;2.67;;;1.00;;
14817;SDS011;7500;57.698;11.986;2023-05-07T05:29:06;1.53;;;0.80;;
14817;SDS011;7500;57.698;11.986;2023-05-07T05:31:33;1.23;;;0.80;;
14817;SDS011;7500;57.698;11.986;2023-05-07T05:34:00;3.10;;;1.07;;
14817;SDS011;7500;57.698;11.986;2023-05-07T05:36:30;3.63;;;1.20;;
14817;SDS011;7500;57.698;11.986;2023-05-07T05:38:57;3.27;;;1.10;;
14817;SDS011;7500;57.698;11.986;2023-05-07T05:41:27;3.33;;;1.33;;
14817;SDS011;7500;57.698;11.986;2023-05-07T05:43:54;3.10;;;1.40;;
14817;SDS011;7500;57.698;11.986;2023-05-07T05:46:21;2.00;;;0.80;;
14817;SDS011;7500;57.698;11.986;2023-05-07T05:48:47;1.37;;;1.20;;
14817;SDS011;7500;57.698;11.986;2023-05-07T05:51:14;2.00;;;1.07;;
14817;SDS011;7500;57.698;11.986;2023-05-07T05:53:41;2.60;;;1.20;;
14817;SDS011;7500;57.698;11.986;2023-05-07T05:56:07;1.70;;;1.00;;
14817;SDS011;7500;57.698;11.986;2023-05-07T05:58:36;1.40;;;1.10;;
14817;SDS011;7500;57.698;11.986;2023-05-07T06:01:02;2.00;;;1.20;;
14817;SDS011;7500;57.698;11.986;2023-05-07T06:03:30;1.30;;;1.10;;
14817;SDS011;7500;57.698;11.986;2023-05-07T06:05:57;2.23;;;1.00;;
14817;SDS011;7500;57.698;11.986;2023-05-07T06:08:25;1.57;;;0.90;;
14817;SDS011;7500;57.698;11.986;2023-05-07T06:10:51;1.77;;;1.00;;
14817;SDS011;7500;57.698;11.986;2023-05-07T06:13:18;4.70;;;1.30;;
14817;SDS011;7500;57.698;11.986;2023-05-07T06:15:46;1.13;;;1.03;;
14817;SDS011;7500;57.698;11.986;2023-05-07T06:18:13;1.83;;;1.10;;
14817;SDS011;7500;57.698;11.986;2023-05-07T06:20:39;2.57;;;1.00;;
14817;SDS011;7500;57.698;11.986;2023-05-07T06:23:06;2.77;;;1.10;;
14817;SDS011;7500;57.698;11.986;2023-05-07T06:25:33;1.77;;;1.37;;
14817;SDS011;7500;57.698;11.986;2023-05-07T06:27:59;1.97;;;1.30;;
14817;SDS011;7500;57.698;11.986;2023-05-07T06:30:26;1.70;;;1.07;;
14817;SDS011;7500;57.698;11.986;2023-05-07T06:32:54;2.10;;;0.90;;
14817;SDS011;7500;57.698;11.986;2023-05-07T06:35:20;2.97;;;0.90;;
14817;SDS011;7500;57.698;11.986;2023-05-07T06:37:47;5.67;;;1.10;;
14817;SDS011;7500;57.698;11.986;2023-05-07T06:40:14;2.27;;;1.00;;
14817;SDS011;7500;57.698;11.986;2023-05-07T06:42:40;2.47;;;1.20;;
14817;SDS011;7500;57.698;11.986;2023-05-07T06:45:07;1.70;;;1.10;;
14817;SDS011;7500;57.698;11.986;2023-05-07T06:47:34;1.40;;;0.77;;
14817;SDS011;7500;57.698;11.986;2023-05-07T06:50:03;1.73;;;1.00;;
14817;SDS011;7500;57.698;11.986;2023-05-07T06:52:29;1.23;;;0.90;;
14817;SDS011;7500;57.698;11.986;2023-05-07T06:54:56;2.90;;;1.40;;
14817;SDS011;7500;57.698;11.986;2023-05-07T06:57:23;2.33;;;1.30;;
14817;SDS011;7500;57.698;11.986;2023-05-07T06:59:50;3.47;;;0.90;;
14817;SDS011;7500;57.698;11.986;2023-05-07T07:02:16;4.67;;;1.17;;
14817;SDS011;7500;57.698;11.986;2023-05-07T07:04:43;1.80;;;1.07;;
14817;SDS011;7500;57.698;11.986;2023-05-07T07:07:11;1.50;;;0.90;;
14817;SDS011;7500;57.698;11.986;2023-05-07T07:09:38;2.33;;;1.00;;
14817;SDS011;7500;57.698;11.986;2023-05-07T07:12:05;3.10;;;1.03;;
14817;SDS011;7500;57.698;11.986;2023-05-07T07:14:32;1.37;;;1.17;;
14817;SDS011;7500;57.698;11.986;2023-05-07T07:16:58;1.50;;;1.10;;
14817;SDS011;7500;57.698;11.986;2023-05-07T07:19:25;2.23;;;1.10;;
14817;SDS011;7500;57.698;11.986;2023-05-07T07:21:55;3.93;;;1.30;;
14817;SDS011;7500;57.698;11.986;2023-05-07T07:24:23;1.33;;;1.00;;
14817;SDS011;7500;57.698;11.986;2023-05-07T07:26:49;1.90;;;1.30;;
14817;SDS011;7500;57.698;11.986;2023-05-07T07:29:16;2.97;;;1.40;;
14817;SDS011;7500;57.698;11.986;2023-05-07T07:31:43;1.67;;;1.13;;
14817;SDS011;7500;57.698;11.986;2023-05-07T07:34:11;1.30;;;1.20;;
14817;SDS011;7500;57.698;11.986;2023-05-07T07:36:38;2.00;;;1.03;;
14817;SDS011;7500;57.698;11.986;2023-05-07T07:39:05;3.87;;;1.40;;
14817;SDS011;7500;57.698;11.986;2023-05-07T07:41:33;1.83;;;1.50;;
14817;SDS011;7500;57.698;11.986;2023-05-07T07:44:00;2.77;;;1.23;;
14817;SDS011;7500;57.698;11.986;2023-05-07T07:46:28;1.50;;;1.23;;
14817;SDS011;7500;57.698;11.986;2023-05-07T07:48:55;1.43;;;1.33;;
14817;SDS011;7500;57.698;11.986;2023-05-07T07:51:24;1.63;;;1.27;;
14817;SDS011;7500;57.698;11.986;2023-05-07T07:53:51;1.47;;;1.37;;
14817;SDS011;7500;57.698;11.986;2023-05-07T07:56:18;1.43;;;1.13;;
14817;SDS011;7500;57.698;11.986;2023-05-07T07:58:47;2.17;;;1.10;;
14817;SDS011;7500;57.698;11.986;2023-05-07T08:01:13;2.40;;;1.20;;
14817;SDS011;7500;57.698;11.986;2023-05-07T08:03:41;1.67;;;0.90;;
14817;SDS011;7500;57.698;11.986;2023-05-07T08:06:08;1.80;;;1.20;;
14817;SDS011;7500;57.698;11.986;2023-05-07T08:08:35;2.27;;;1.40;;
14817;SDS011;7500;57.698;11.986;2023-05-07T08:11:01;2.60;;;1.10;;
14817;SDS011;7500;57.698;11.986;2023-05-07T08:13:28;3.30;;;1.40;;
14817;SDS011;7500;57.698;11.986;2023-05-07T08:15:56;2.43;;;1.70;;
14817;SDS011;7500;57.698;11.986;2023-05-07T08:18:22;4.83;;;1.20;;
14817;SDS011;7500;57.698;11.986;2023-05-07T08:20:49;2.50;;;1.00;;
14817;SDS011;7500;57.698;11.986;2023-05-07T08:23:16;3.10;;;1.40;;
14817;SDS011;7500;57.698;11.986;2023-05-07T08:25:43;1.23;;;1.13;;
14817;SDS011;7500;57.698;11.986;2023-05-07T08:28:12;3.57;;;1.43;;
14817;SDS011;7500;57.698;11.986;2023-05-07T08:30:38;1.73;;;1.33;;
14817;SDS011;7500;57.698;11.986;2023-05-07T08:33:07;2.90;;;1.47;;
14817;SDS011;7500;57.698;11.986;2023-05-07T08:35:34;3.97;;;1.10;;
14817;SDS011;7500;57.698;11.986;2023-05-07T08:38:01;2.00;;;1.30;;
14817;SDS011;7500;57.698;11.986;2023-05-07T08:40:28;1.87;;;1.17;;
14817;SDS011;7500;57.698;11.986;2023-05-07T08:42:54;2.27;;;1.40;;
14817;SDS011;7500;57.698;11.986;2023-05-07T08:45:24;2.07;;;1.20;;
14817;SDS011;7500;57.698;11.986;2023-05-07T08:47:55;1.70;;;1.20;;
14817;SDS011;7500;57.698;11.986;2023-05-07T08:50:26;2.90;;;1.27;;
14817;SDS011;7500;57.698;11.986;2023-05-07T08:52:52;0.93;;;0.93;;
14817;SDS011;7500;57.698;11.986;2023-05-07T08:55:19;1.30;;;1.07;;
14817;SDS011;7500;57.698;11.986;2023-05-07T08:57:46;2.13;;;1.60;;
14817;SDS011;7500;57.698;11.986;2023-05-07T09:00:13;1.97;;;1.20;;
14817;SDS011;7500;57.698;11.986;2023-05-07T09:02:40;1.60;;;1.33;;
14817;SDS011;7500;57.698;11.986;2023-05-07T09:05:08;1.93;;;1.17;;
14817;SDS011;7500;57.698;11.986;2023-05-07T09:07:36;1.87;;;1.30;;
14817;SDS011;7500;57.698;11.986;2023-05-07T09:10:03;1.27;;;1.17;;
14817;SDS011;7500;57.698;11.986;2023-05-07T09:12:30;1.33;;;1.00;;
14817;SDS011;7500;57.698;11.986;2023-05-07T09:14:57;2.73;;;1.30;;
14817;SDS011;7500;57.698;11.986;2023-05-07T09:17:25;3.03;;;1.30;;
14817;SDS011;7500;57.698;11.986;2023-05-07T09:19:52;1.70;;;1.30;;
14817;SDS011;7500;57.698;11.986;2023-05-07T09:22:19;2.30;;;1.20;;
14817;SDS011;7500;57.698;11.986;2023-05-07T09:24:48;2.00;;;1.20;;
14817;SDS011;7500;57.698;11.986;2023-05-07T09:27:16;2.00;;;1.10;;
14817;SDS011;7500;57.698;11.986;2023-05-07T09:29:43;3.07;;;1.20;;
14817;SDS011;7500;57.698;11.986;2023-05-07T09:32:10;1.57;;;1.10;;
14817;SDS011;7500;57.698;11.986;2023-05-07T09:34:41;6.70;;;1.40;;
14817;SDS011;7500;57.698;11.986;2023-05-07T09:37:07;2.40;;;1.30;;
14817;SDS011;7500;57.698;11.986;2023-05-07T09:39:40;2.80;;;1.03;;
14817;SDS011;7500;57.698;11.986;2023-05-07T09:42:09;1.70;;;1.17;;
14817;SDS011;7500;57.698;11.986;2023-05-07T09:44:36;2.90;;;1.10;;
14817;SDS011;7500;57.698;11.986;2023-05-07T09:47:04;3.60;;;1.20;;
14817;SDS011;7500;57.698;11.986;2023-05-07T09:49:31;1.60;;;1.13;;
14817;SDS011;7500;57.698;11.986;2023-05-07T09:52:00;6.77;;;1.60;;
14817;SDS011;7500;57.698;11.986;2023-05-07T09:54:27;4.73;;;1.50;;
14817;SDS011;7500;57.698;11.986;2023-05-07T09:56:55;2.43;;;1.60;;
14817;SDS011;7500;57.698;11.986;2023-05-07T09:59:24;3.20;;;1.63;;
14817;SDS011;7500;57.698;11.986;2023-05-07T10:01:54;1.93;;;1.17;;
14817;SDS011;7500;57.698;11.986;2023-05-07T10:04:25;1.33;;;1.07;;
14817;SDS011;7500;57.698;11.986;2023-05-07T10:06:53;1.07;;;1.07;;
14817;SDS011;7500;57.698;11.986;2023-05-07T10:09:20;1.83;;;1.20;;
14817;SDS011;7500;57.698;11.986;2023-05-07T10:11:47;4.00;;;1.17;;
14817;SDS011;7500;57.698;11.986;2023-05-07T10:14:15;2.13;;;1.53;;
14817;SDS011;7500;57.698;11.986;2023-05-07T10:16:43;1.53;;;1.37;;
14817;SDS011;7500;57.698;11.986;2023-05-07T10:19:09;1.87;;;1.13;;
14817;SDS011;7500;57.698;11.986;2023-05-07T10:21:36;3.70;;;1.37;;
14817;SDS011;7500;57.698;11.986;2023-05-07T10:24:03;5.13;;;1.60;;
14817;SDS011;7500;57.698;11.986;2023-05-07T10:26:33;1.00;;;1.00;;
14817;SDS011;7500;57.698;11.986;2023-05-07T10:29:03;1.57;;;1.43;;
14817;SDS011;7500;57.698;11.986;2023-05-07T10:31:35;1.20;;;1.10;;
14817;SDS011;7500;57.698;11.986;2023-05-07T10:34:08;3.07;;;1.30;;
14817;SDS011;7500;57.698;11.986;2023-05-07T10:36:36;1.30;;;1.10;;
14817;SDS011;7500;57.698;11.986;2023-05-07T10:39:04;1.93;;;1.20;;
14817;SDS011;7500;57.698;11.986;2023-05-07T10:41:34;1.50;;;1.40;;
14817;SDS011;7500;57.698;11.986;2023-05-07T10:44:02;2.83;;;1.40;;
14817;SDS011;7500;57.698;11.986;2023-05-07T10:46:28;2.30;;;1.40;;
14817;SDS011;7500;57.698;11.986;2023-05-07T10:49:09;1.87;;;1.33;;
14817;SDS011;7500;57.698;11.986;2023-05-07T10:51:40;2.90;;;1.10;;
14817;SDS011;7500;57.698;11.986;2023-05-07T10:54:19;3.20;;;1.50;;
14817;SDS011;7500;57.698;11.986;2023-05-07T10:56:46;1.80;;;1.10;;
14817;SDS011;7500;57.698;11.986;2023-05-07T11:01:59;2.80;;;1.47;;
14817;SDS011;7500;57.698;11.986;2023-05-07T11:04:29;3.27;;;1.20;;
14817;SDS011;7500;57.698;11.986;2023-05-07T11:09:57;1.90;;;1.20;;
14817;SDS011;7500;57.698;11.986;2023-05-07T11:15:07;1.00;;;1.00;;
14817;SDS011;7500;57.698;11.986;2023-05-07T11:17:34;2.77;;;1.40;;
14817;SDS011;7500;57.698;11.986;2023-05-07T11:20:04;1.63;;;1.30;;
14817;SDS011;7500;57.698;11.986;2023-05-07T11:22:38;3.03;;;1.13;;
14817;SDS011;7500;57.698;11.986;2023-05-07T11:25:06;3.57;;;1.33;;
14817;SDS011;7500;57.698;11.986;2023-05-07T11:27:32;3.00;;;1.50;;
14817;SDS011;7500;57.698;11.986;2023-05-07T11:30:02;1.17;;;1.07;;
14817;SDS011;7500;57.698;11.986;2023-05-07T11:32:29;3.17;;;1.43;;
14817;SDS011;7500;57.698;11.986;2023-05-07T11:34:56;4.70;;;1.50;;
14817;SDS011;7500;57.698;11.986;2023-05-07T11:37:25;2.37;;;1.20;;
14817;SDS011;7500;57.698;11.986;2023-05-07T11:40:01;2.30;;;1.40;;
14817;SDS011;7500;57.698;11.986;2023-05-07T11:42:32;2.53;;;1.60;;
14817;SDS011;7500;57.698;11.986;2023-05-07T11:44:59;3.03;;;1.33;;
14817;SDS011;7500;57.698;11.986;2023-05-07T11:47:25;3.40;;;1.30;;
14817;SDS011;7500;57.698;11.986;2023-05-07T11:49:52;2.17;;;1.17;;
14817;SDS011;7500;57.698;11.986;2023-05-07T11:52:20;1.97;;;1.33;;
14817;SDS011;7500;57.698;11.986;2023-05-07T11:54:52;1.43;;;1.30;;
14817;SDS011;7500;57.698;11.986;2023-05-07T11:57:20;1.50;;;1.23;;
14817;SDS011;7500;57.698;11.986;2023-05-07T11:59:46;3.23;;;1.30;;
14817;SDS011;7500;57.698;11.986;2023-05-07T12:02:13;1.37;;;1.27;;
14817;SDS011;7500;57.698;11.986;2023-05-07T12:04:43;1.40;;;1.30;;
14817;SDS011;7500;57.698;11.986;2023-05-07T12:07:11;1.30;;;1.20;;
14817;SDS011;7500;57.698;11.986;2023-05-07T12:09:38;2.87;;;1.50;;
14817;SDS011;7500;57.698;11.986;2023-05-07T12:12:06;1.60;;;1.30;;
14817;SDS011;7500;57.698;11.986;2023-05-07T12:14:37;2.53;;;1.67;;
14817;SDS011;7500;57.698;11.986;2023-05-07T12:17:03;3.57;;;1.70;;
14817;SDS011;7500;57.698;11.986;2023-05-07T12:19:30;3.03;;;1.73;;
14817;SDS011;7500;57.698;11.986;2023-05-07T12:21:58;1.33;;;1.20;;
14817;SDS011;7500;57.698;11.986;2023-05-07T12:24:24;2.07;;;1.60;;
14817;SDS011;7500;57.698;11.986;2023-05-07T12:26:51;3.13;;;1.70;;
14817;SDS011;7500;57.698;11.986;2023-05-07T12:29:22;1.73;;;1.43;;
14817;SDS011;7500;57.698;11.986;2023-05-07T12:31:49;3.70;;;1.70;;
14817;SDS011;7500;57.698;11.986;2023-05-07T12:34:16;7.73;;;2.57;;
14817;SDS011;7500;57.698;11.986;2023-05-07T12:36:43;5.67;;;1.80;;
14817;SDS011;7500;57.698;11.986;2023-05-07T12:39:14;2.63;;;1.80;;
14817;SDS011;7500;57.698;11.986;2023-05-07T12:41:53;4.43;;;1.90;;
14817;SDS011;7500;57.698;11.986;2023-05-07T12:44:23;2.73;;;1.40;;
14817;SDS011;7500;57.698;11.986;2023-05-07T12:46:50;2.93;;;1.87;;
14817;SDS011;7500;57.698;11.986;2023-05-07T12:49:17;1.77;;;1.40;;
14817;SDS011;7500;57.698;11.986;2023-05-07T12:51:46;4.07;;;1.40;;
14817;SDS011;7500;57.698;11.986;2023-05-07T12:54:16;1.73;;;1.37;;
14817;SDS011;7500;57.698;11.986;2023-05-07T12:57:02;2.17;;;1.53;;
14817;SDS011;7500;57.698;11.986;2023-05-07T12:59:34;2.37;;;1.70;;
14817;SDS011;7500;57.698;11.986;2023-05-07T13:02:02;5.37;;;2.10;;
14817;SDS011;7500;57.698;11.986;2023-05-07T13:04:29;2.13;;;1.90;;
14817;SDS011;7500;57.698;11.986;2023-05-07T13:06:56;1.60;;;1.50;;
14817;SDS011;7500;57.698;11.986;2023-05-07T13:09:22;3.03;;;1.67;;
14817;SDS011;7500;57.698;11.986;2023-05-07T13:11:52;4.00;;;1.60;;
14817;SDS011;7500;57.698;11.986;2023-05-07T13:14:18;3.17;;;1.50;;
14817;SDS011;7500;57.698;11.986;2023-05-07T13:16:47;1.63;;;1.50;;
14817;SDS011;7500;57.698;11.986;2023-05-07T13:19:14;2.03;;;1.37;;
14817;SDS011;7500;57.698;11.986;2023-05-07T13:21:41;2.70;;;1.70;;
14817;SDS011;7500;57.698;11.986;2023-05-07T13:24:07;1.90;;;1.70;;
14817;SDS011;7500;57.698;11.986;2023-05-07T13:26:35;2.10;;;1.53;;
14817;SDS011;7500;57.698;11.986;2023-05-07T13:29:02;3.00;;;1.40;;
14817;SDS011;7500;57.698;11.986;2023-05-07T13:31:29;1.50;;;1.40;;
14817;SDS011;7500;57.698;11.986;2023-05-07T13:33:57;3.27;;;1.57;;
14817;SDS011;7500;57.698;11.986;2023-05-07T13:36:23;1.93;;;1.40;;
14817;SDS011;7500;57.698;11.986;2023-05-07T13:38:53;3.23;;;1.60;;
14817;SDS011;7500;57.698;11.986;2023-05-07T13:41:20;2.80;;;1.40;;
14817;SDS011;7500;57.698;11.986;2023-05-07T13:43:46;3.93;;;1.40;;
14817;SDS011;7500;57.698;11.986;2023-05-07T13:46:16;2.80;;;1.70;;
14817;SDS011;7500;57.698;11.986;2023-05-07T13:48:43;2.07;;;1.60;;
14817;SDS011;7500;57.698;11.986;2023-05-07T13:51:11;3.87;;;1.50;;
14817;SDS011;7500;57.698;11.986;2023-05-07T13:53:37;2.40;;;1.97;;
14817;SDS011;7500;57.698;11.986;2023-05-07T13:56:07;3.00;;;1.60;;
14817;SDS011;7500;57.698;11.986;2023-05-07T13:58:37;4.73;;;2.07;;
14817;SDS011;7500;57.698;11.986;2023-05-07T14:01:04;4.70;;;2.00;;
14817;SDS011;7500;57.698;11.986;2023-05-07T14:03:31;3.73;;;1.63;;
14817;SDS011;7500;57.698;11.986;2023-05-07T14:05:59;1.60;;;1.50;;
14817;SDS011;7500;57.698;11.986;2023-05-07T14:08:28;2.37;;;1.50;;
14817;SDS011;7500;57.698;11.986;2023-05-07T14:10:55;2.00;;;1.80;;
14817;SDS011;7500;57.698;11.986;2023-05-07T14:13:21;3.40;;;1.90;;
14817;SDS011;7500;57.698;11.986;2023-05-07T14:16:02;3.60;;;1.50;;
14817;SDS011;7500;57.698;11.986;2023-05-07T14:18:29;3.60;;;1.80;;
14817;SDS011;7500;57.698;11.986;2023-05-07T14:20:56;3.10;;;1.73;;
14817;SDS011;7500;57.698;11.986;2023-05-07T14:23:22;1.93;;;1.63;;
14817;SDS011;7500;57.698;11.986;2023-05-07T14:25:53;1.70;;;1.60;;
14817;SDS011;7500;57.698;11.986;2023-05-07T14:28:19;3.37;;;1.70;;
14817;SDS011;7500;57.698;11.986;2023-05-07T14:30:46;1.87;;;1.73;;
14817;SDS011;7500;57.698;11.986;2023-05-07T14:33:13;3.37;;;1.83;;
14817;SDS011;7500;57.698;11.986;2023-05-07T14:35:39;3.20;;;1.90;;
14817;SDS011;7500;57.698;11.986;2023-05-07T14:38:06;5.77;;;1.90;;
14817;SDS011;7500;57.698;11.986;2023-05-07T14:40:36;4.17;;;2.20;;
14817;SDS011;7500;57.698;11.986;2023-05-07T14:43:04;3.07;;;1.80;;
14817;SDS011;7500;57.698;11.986;2023-05-07T14:45:30;4.70;;;1.93;;
14817;SDS011;7500;57.698;11.986;2023-05-07T14:48:00;4.20;;;1.93;;
14817;SDS011;7500;57.698;11.986;2023-05-07T14:50:26;2.93;;;1.80;;
14817;SDS011;7500;57.698;11.986;2023-05-07T14:52:53;3.53;;;1.97;;
14817;SDS011;7500;57.698;11.986;2023-05-07T14:55:24;5.53;;;1.90;;
14817;SDS011;7500;57.698;11.986;2023-05-07T14:57:57;2.57;;;1.80;;